Time;durP1;ratioP1;P1;durP2;ratioP2;P2;SDS_P1;SDS_P2;PMS_P1;PMS_P2;Temp;Humidity;BMP_temperature;BMP_pressure;BME280_temperature;BME280_humidity;BME280_pressure;Samples;Min_cycle;Max_cycle;Signal;HPM_P1;HPM_P2
2023/05/30 00:00:25;;;;;;;4.27;3.57;;;16.10;94.50;;;;;;5037705;28;20189;-82
2023/05/30 00:02:51;;;;;;;4.37;3.97;;;16.10;94.20;;;;;;5055105;28;20174;-80
2023/05/30 00:05:17;;;;;;;4.67;3.90;;;;;;;;;;5055001;28;20651;-81
2023/05/30 00:07:43;;;;;;;5.10;3.90;;;;;;;;;;5037056;28;20299;-81
2023/05/30 00:10:09;;;;;;;4.90;4.30;;;15.90;94.10;;;;;;5037230;28;20168;-80
2023/05/30 00:12:35;;;;;;;4.40;4.00;;;14.80;94.00;;;;;;5055296;28;20592;-81
2023/05/30 00:15:05;;;;;;;5.17;3.67;;;16.00;94.50;;;;;;5037149;28;20551;-81
2023/05/30 00:17:32;;;;;;;5.27;4.20;;;15.90;94.50;;;;;;5037175;28;20207;-81
2023/05/30 00:19:59;;;;;;;4.60;4.17;;;15.80;94.60;;;;;;5054628;28;20200;-81
2023/05/30 00:22:25;;;;;;;7.00;3.97;;;15.80;94.70;;;;;;5036887;28;20173;-82
2023/05/30 00:24:51;;;;;;;4.77;4.13;;;15.80;94.70;;;;;;5054748;28;20169;-82
2023/05/30 00:27:18;;;;;;;8.17;4.27;;;15.70;94.80;;;;;;5054783;28;20209;-81
2023/05/30 00:29:45;;;;;;;5.27;3.93;;;15.60;94.90;;;;;;5038956;28;20745;-84
2023/05/30 00:32:11;;;;;;;5.30;4.20;;;15.60;95.10;;;;;;5075393;28;20171;-83
2023/05/30 00:34:37;;;;;;;4.77;4.30;;;15.60;95.20;;;;;;5042517;28;20633;-80
2023/05/30 00:37:05;;;;;;;5.63;4.43;;;15.50;95.30;;;;;;5037191;28;20266;-82
2023/05/30 00:39:31;;;;;;;4.20;3.80;;;15.50;95.20;;;;;;5054951;28;20176;-82
2023/05/30 00:41:57;;;;;;;5.00;4.50;;;;;;;;;;5067050;28;20206;-82
2023/05/30 00:44:23;;;;;;;4.87;4.27;;;15.30;95.30;;;;;;5055297;28;20195;-80
2023/05/30 00:46:50;;;;;;;4.27;3.87;;;15.30;95.60;;;;;;5065610;28;20566;-83
2023/05/30 00:49:17;;;;;;;4.90;4.40;;;15.30;95.60;;;;;;5038863;28;20183;-82
2023/05/30 00:51:43;;;;;;;9.07;4.67;;;15.30;95.70;;;;;;5036509;28;20273;-80
2023/05/30 00:54:09;;;;;;;5.07;4.57;;;15.10;95.70;;;;;;5036444;28;20203;-81
2023/05/30 00:56:36;;;;;;;4.23;3.83;;;15.20;96.10;;;;;;5042618;28;20192;-81
2023/05/30 00:59:02;;;;;;;5.63;3.93;;;15.10;96.10;;;;;;5060242;28;20188;-81
2023/05/30 01:01:29;;;;;;;4.13;3.83;;;15.10;96.10;;;;;;5056718;28;20282;-83
2023/05/30 01:03:56;;;;;;;5.27;4.57;;;15.10;96.10;;;;;;5040986;28;20211;-80
2023/05/30 01:06:27;;;;;;;4.33;3.93;;;15.00;96.20;;;;;;5036156;28;20215;-82
2023/05/30 01:08:54;;;;;;;6.07;4.37;;;15.10;96.30;;;;;;5053622;28;20164;-81
2023/05/30 01:11:35;;;;;;;8.07;4.63;;;15.00;96.40;;;;;;5053678;28;20573;-82
2023/05/30 01:14:24;;;;;;;7.53;4.53;;;14.90;96.40;;;;;;5037324;28;20268;-81
2023/05/30 01:17:00;;;;;;;4.50;4.10;;;15.00;96.40;;;;;;5042563;28;20198;-80
2023/05/30 01:19:54;;;;;;;4.53;4.10;;;14.90;96.40;;;;;;5076147;28;20159;-81
2023/05/30 01:22:36;;;;;;;4.03;3.63;;;14.90;96.50;;;;;;5058140;28;20235;-81
2023/05/30 01:25:40;;;;;;;4.93;4.40;;;14.90;96.50;;;;;;5037316;28;20544;-81
2023/05/30 01:28:12;;;;;;;4.43;4.03;;;14.90;96.50;;;;;;5054540;28;20584;-81
2023/05/30 01:30:46;;;;;;;5.03;4.23;;;14.30;96.30;;;;;;5054663;28;20216;-82
2023/05/30 01:33:13;;;;;;;4.50;4.00;;;14.90;96.60;;;;;;5070953;28;20161;-81
2023/05/30 01:35:44;;;;;;;4.00;3.57;;;14.90;96.60;;;;;;5049850;28;20172;-81
2023/05/30 01:38:11;;;;;;;6.10;4.27;;;14.80;97.00;;;;;;5032347;28;20730;-80
2023/05/30 01:40:38;;;;;;;4.67;4.00;;;14.80;96.80;;;;;;5033187;28;20171;-83
2023/05/30 01:43:14;;;;;;;4.77;4.27;;;14.80;96.70;;;;;;5033263;28;20206;-82
2023/05/30 01:45:52;;;;;;;5.73;4.17;;;14.80;96.70;;;;;;5031870;28;20176;-79
2023/05/30 01:48:27;;;;;;;6.63;4.93;;;14.80;96.80;;;;;;5033307;28;20644;-80
2023/05/30 01:50:55;;;;;;;5.03;3.90;;;14.80;96.80;;;;;;5031899;28;20181;-80
2023/05/30 01:53:29;;;;;;;4.27;3.87;;;14.80;96.80;;;;;;5033175;28;20169;-80
2023/05/30 01:56:00;;;;;;;5.57;4.10;;;14.80;96.80;;;;;;5031991;28;20172;-81
2023/05/30 01:58:27;;;;;;;5.37;4.00;;;14.70;96.80;;;;;;5032110;28;20207;-82
2023/05/30 02:00:54;;;;;;;4.33;3.87;;;14.80;96.80;;;;;;5033086;28;20598;-82
2023/05/30 02:03:23;;;;;;;4.27;3.87;;;14.80;96.80;;;;;;5033305;28;20268;-81
2023/05/30 02:05:49;;;;;;;4.37;3.97;;;14.80;96.80;;;;;;5036781;28;20192;-81
2023/05/30 02:08:15;;;;;;;4.80;4.20;;;14.80;96.80;;;;;;5050282;28;20180;-82
2023/05/30 02:10:40;;;;;;;4.60;4.20;;;14.70;96.80;;;;;;5034195;28;20531;-80
2023/05/30 02:13:06;;;;;;;4.33;3.90;;;14.70;96.90;;;;;;5032128;28;20590;-80
2023/05/30 02:15:32;;;;;;;6.00;4.20;;;14.70;96.90;;;;;;5032071;28;20202;-81
2023/05/30 02:18:01;;;;;;;7.27;4.43;;;14.60;97.00;;;;;;5043077;28;20172;-82
2023/05/30 02:20:27;;;;;;;4.57;4.17;;;14.60;97.30;;;;;;5050042;28;20261;-82
2023/05/30 02:22:53;;;;;;;4.67;3.90;;;14.60;97.00;;;;;;5033792;28;20247;-83
2023/05/30 02:25:20;;;;;;;3.93;3.63;;;14.60;97.10;;;;;;5035326;28;20178;-84
2023/05/30 02:27:47;;;;;;;4.40;4.00;;;14.50;97.30;;;;;;5036402;28;20706;-83
2023/05/30 02:30:13;;;;;;;5.60;4.60;;;14.40;97.50;;;;;;5034188;28;20240;-81
2023/05/30 02:32:39;;;;;;;7.40;3.90;;;14.30;97.40;;;;;;5035739;28;20180;-81
2023/05/30 02:35:05;;;;;;;4.30;3.90;;;14.30;97.50;;;;;;5033039;28;20191;-81
2023/05/30 02:37:31;;;;;;;4.63;3.83;;;14.30;97.50;;;;;;5031862;28;20331;-81
2023/05/30 02:39:57;;;;;;;6.77;4.10;;;14.20;97.70;;;;;;5039535;28;20197;-81
2023/05/30 02:42:23;;;;;;;5.43;4.07;;;14.20;97.80;;;;;;5040948;28;20188;-80
2023/05/30 02:44:48;;;;;;;4.07;3.67;;;14.20;97.90;;;;;;5030854;28;20533;-82
2023/05/30 02:47:14;;;;;;;4.70;4.30;;;14.00;98.00;;;;;;5032686;28;20291;-81
2023/05/30 02:49:40;;;;;;;5.20;4.70;;;14.00;98.10;;;;;;5031501;28;20184;-80
2023/05/30 02:52:06;;;;;;;4.50;3.70;;;14.00;98.20;;;;;;5031036;28;20180;-81
2023/05/30 02:54:31;;;;;;;4.73;3.43;;;14.00;98.20;;;;;;5030875;28;20535;-81
2023/05/30 02:56:57;;;;;;;3.83;3.53;;;14.00;98.20;;;;;;5037022;28;20236;-81
2023/05/30 02:59:23;;;;;;;4.40;3.83;;;14.00;98.20;;;;;;5033882;28;20581;-82
2023/05/30 03:01:49;;;;;;;4.67;4.17;;;14.00;98.20;;;;;;5031534;28;20183;-81
2023/05/30 03:04:14;;;;;;;4.57;3.90;;;14.00;98.20;;;;;;5031019;28;20178;-80
2023/05/30 03:06:41;;;;;;;4.20;3.80;;;14.00;98.30;;;;;;5030929;28;20216;-82
2023/05/30 03:09:07;;;;;;;6.60;4.03;;;14.00;98.30;;;;;;5031061;28;20949;-81
2023/05/30 03:11:32;;;;;;;4.43;3.50;;;14.00;98.30;;;;;;5033856;28;20184;-80
2023/05/30 03:13:58;;;;;;;5.90;3.87;;;14.00;98.20;;;;;;5034695;28;20246;-81
2023/05/30 03:16:24;;;;;;;4.20;3.80;;;14.00;98.30;;;;;;5035561;28;20176;-81
2023/05/30 03:18:50;;;;;;;4.23;3.93;;;13.90;98.30;;;;;;5044359;28;20179;-81
2023/05/30 03:21:16;;;;;;;4.03;3.73;;;13.90;98.50;;;;;;5054693;28;20274;-81
2023/05/30 03:23:41;;;;;;;6.40;4.10;;;13.90;98.60;;;;;;5054606;28;20188;-82
2023/05/30 03:26:08;;;;;;;4.57;4.17;;;13.90;98.40;;;;;;5045640;28;20200;-83
2023/05/30 03:28:33;;;;;;;4.87;4.03;;;13.90;98.40;;;;;;5054874;28;20644;-80
2023/05/30 03:31:00;;;;;;;4.10;3.60;;;14.00;98.40;;;;;;5044596;28;20189;-81
2023/05/30 03:33:28;;;;;;;3.83;3.50;;;13.90;98.30;;;;;;5036787;28;20195;-82
2023/05/30 03:35:54;;;;;;;3.70;3.40;;;13.90;98.30;;;;;;5036034;28;20176;-82
2023/05/30 03:38:21;;;;;;;4.70;4.00;;;14.00;98.30;;;;;;5034487;28;20245;-81
2023/05/30 03:40:47;;;;;;;4.70;3.97;;;14.00;98.20;;;;;;5034889;28;20542;-81
2023/05/30 03:43:12;;;;;;;4.23;3.83;;;14.00;98.20;;;;;;5052773;28;20213;-81
2023/05/30 03:45:38;;;;;;;4.53;3.87;;;14.00;98.20;;;;;;5036991;28;20243;-81
2023/05/30 03:48:04;;;;;;;4.50;4.10;;;14.10;98.20;;;;;;5031160;28;20185;-81
2023/05/30 03:50:30;;;;;;;4.40;3.83;;;14.00;98.20;;;;;;5016338;28;20173;-80
2023/05/30 03:52:56;;;;;;;4.57;4.17;;;14.10;98.20;;;;;;5024503;28;20185;-81
2023/05/30 03:55:22;;;;;;;4.63;3.73;;;14.10;98.20;;;;;;5030975;28;20656;-80
2023/05/30 03:57:47;;;;;;;5.07;4.00;;;14.10;98.20;;;;;;5024317;28;20645;-82
2023/05/30 04:00:13;;;;;;;4.80;4.00;;;14.20;98.20;;;;;;5018895;28;20181;-81
2023/05/30 04:02:40;;;;;;;4.33;3.93;;;14.20;98.20;;;;;;5014340;28;20185;-84
2023/05/30 04:05:06;;;;;;;4.30;3.90;;;14.20;98.20;;;;;;5016546;28;20197;-80
2023/05/30 04:07:35;;;;;;;4.43;3.83;;;14.10;98.30;;;;;;5019916;28;20244;-81
2023/05/30 04:10:03;;;;;;;4.40;3.83;;;14.20;98.30;;;;;;5017415;28;20181;-82
2023/05/30 04:12:29;;;;;;;5.83;4.20;;;14.20;98.20;;;;;;5015521;28;20174;-81
2023/05/30 04:14:55;;;;;;;5.73;4.00;;;14.30;98.10;;;;;;5015318;28;20228;-81
2023/05/30 04:17:21;;;;;;;5.60;4.10;;;14.40;98.10;;;;;;5014084;28;20181;-80
2023/05/30 04:19:47;;;;;;;4.63;3.93;;;14.50;97.90;;;;;;5013913;28;20185;-81
2023/05/30 04:22:13;;;;;;;4.50;4.00;;;14.50;97.90;;;;;;5014271;28;20184;-82
2023/05/30 04:24:38;;;;;;;5.83;4.00;;;14.60;97.80;;;;;;5016407;28;20236;-82
2023/05/30 04:27:04;;;;;;;4.83;3.70;;;14.60;97.60;;;;;;5016485;28;20661;-82
2023/05/30 04:29:30;;;;;;;4.27;3.87;;;14.70;97.50;;;;;;5013753;28;20557;-84
2023/05/30 04:31:56;;;;;;;5.83;3.83;;;14.80;97.50;;;;;;5013917;28;20297;-82
2023/05/30 04:34:24;;;;;;;5.40;4.00;;;14.90;97.50;;;;;;5014639;28;20287;-81
2023/05/30 04:36:52;;;;;;;4.80;3.80;;;14.90;97.40;;;;;;5018170;28;20298;-81
2023/05/30 04:39:17;;;;;;;4.30;3.73;;;15.00;97.40;;;;;;5034646;28;20616;-81
2023/05/30 04:41:43;;;;;;;7.03;4.03;;;15.00;97.30;;;;;;5033180;28;20295;-81
2023/05/30 04:44:09;;;;;;;4.70;4.10;;;15.00;97.20;;;;;;5034239;28;20519;-82
2023/05/30 04:46:35;;;;;;;3.57;3.27;;;15.10;97.10;;;;;;5032917;28;20287;-81
2023/05/30 04:49:02;;;;;;;4.57;4.17;;;15.20;97.10;;;;;;5033512;28;20223;-82
2023/05/30 04:51:28;;;;;;;4.60;4.17;;;15.20;97.00;;;;;;5035528;28;20173;-80
2023/05/30 04:53:54;;;;;;;4.07;3.67;;;15.30;96.90;;;;;;5033197;28;20523;-82
2023/05/30 04:56:20;;;;;;;6.87;3.83;;;15.30;96.90;;;;;;5033226;28;20212;-82
2023/05/30 04:58:48;;;;;;;4.60;4.20;;;15.40;96.80;;;;;;5034545;28;20251;-81
2023/05/30 05:01:14;;;;;;;4.63;3.97;;;15.50;96.50;;;;;;5033467;28;20280;-81
2023/05/30 05:03:41;;;;;;;4.30;3.90;;;15.50;96.60;;;;;;5034028;28;20513;-81
2023/05/30 05:06:07;;;;;;;4.30;3.90;;;15.50;96.60;;;;;;5034035;28;20602;-81
2023/05/30 05:08:36;;;;;;;5.70;3.73;;;15.60;96.60;;;;;;5032834;28;20707;-80
2023/05/30 05:11:04;;;;;;;4.93;4.07;;;15.60;96.50;;;;;;5033673;28;20180;-83
2023/05/30 05:13:33;;;;;;;4.40;4.00;;;15.60;96.40;;;;;;5034459;28;20174;-84
2023/05/30 05:16:00;;;;;;;4.90;4.40;;;15.60;96.40;;;;;;5043143;28;20208;-83
2023/05/30 05:18:27;;;;;;;5.30;4.10;;;15.80;96.30;;;;;;5050559;28;20207;-82
2023/05/30 05:20:53;;;;;;;7.17;5.33;;;15.90;96.20;;;;;;5039678;28;20185;-83
2023/05/30 05:23:19;;;;;;;5.80;4.20;;;15.90;96.10;;;;;;5041155;28;20183;-83
2023/05/30 05:25:45;;;;;;;4.67;4.27;;;16.00;96.00;;;;;;5044696;28;20162;-83
2023/05/30 05:28:11;;;;;;;7.10;4.97;;;16.10;96.00;;;;;;5055234;28;20200;-81
2023/05/30 05:30:37;;;;;;;4.13;3.83;;;16.20;96.10;;;;;;5052540;28;20177;-82
2023/05/30 05:33:03;;;;;;;5.63;4.00;;;16.30;96.10;;;;;;5034331;28;20180;-81
2023/05/30 05:35:28;;;;;;;4.90;3.77;;;16.40;96.30;;;;;;5033548;28;20203;-84
2023/05/30 05:37:54;;;;;;;4.20;3.80;;;16.40;96.10;;;;;;5046756;28;20324;-83
2023/05/30 05:40:20;;;;;;;4.20;3.80;;;16.50;96.00;;;;;;5054153;28;20184;-83
2023/05/30 05:42:46;;;;;;;4.23;3.83;;;16.50;95.90;;;;;;5035547;28;20176;-82
2023/05/30 05:45:12;;;;;;;5.07;3.77;;;16.50;95.70;;;;;;5035032;28;20180;-82
2023/05/30 05:47:37;;;;;;;3.60;3.30;;;16.60;95.70;;;;;;5053336;28;20212;-81
2023/05/30 05:50:04;;;;;;;5.53;3.67;;;16.60;95.50;;;;;;5053470;28;20230;-81
2023/05/30 05:52:29;;;;;;;4.30;3.90;;;16.60;95.30;;;;;;5053400;28;20179;-81
2023/05/30 05:54:55;;;;;;;4.17;3.77;;;16.70;95.40;;;;;;5052761;28;20174;-81
2023/05/30 05:57:21;;;;;;;6.93;4.03;;;16.80;95.50;;;;;;5035339;28;20183;-81
2023/05/30 05:59:47;;;;;;;3.77;3.47;;;16.80;95.10;;;;;;5053239;28;20172;-82
2023/05/30 06:02:13;;;;;;;5.17;4.10;;;17.00;95.10;;;;;;5053822;28;20233;-83
2023/05/30 06:04:39;;;;;;;5.00;3.67;;;17.10;94.90;;;;;;5034607;28;20174;-81
2023/05/30 06:07:04;;;;;;;4.63;3.83;;;17.10;94.70;;;;;;5052825;28;20574;-82
2023/05/30 06:09:31;;;;;;;5.60;3.47;;;17.20;94.70;;;;;;5052985;28;20220;-82
2023/05/30 06:12:07;;;;;;;3.90;3.50;;;17.30;94.60;;;;;;5053239;28;20191;-83
2023/05/30 06:14:32;;;;;;;6.10;3.80;;;17.50;94.30;;;;;;5055806;28;20198;-80
2023/05/30 06:16:58;;;;;;;6.13;3.83;;;17.60;94.20;;;;;;5035584;28;20334;-81
2023/05/30 06:19:24;;;;;;;5.10;4.27;;;17.70;94.10;;;;;;5035551;28;20551;-80
2023/05/30 06:21:50;;;;;;;3.73;3.43;;;17.70;94.30;;;;;;5035321;28;20669;-81
2023/05/30 06:24:16;;;;;;;4.13;3.73;;;17.80;94.10;;;;;;5052753;28;20175;-80
2023/05/30 06:26:42;;;;;;;3.37;3.10;;;18.00;93.90;;;;;;5036759;28;20308;-80
2023/05/30 06:29:07;;;;;;;3.63;3.30;;;18.10;93.60;;;;;;5036977;28;20178;-80
2023/05/30 06:31:33;;;;;;;4.23;3.77;;;18.20;93.50;;;;;;5054185;28;20304;-81
2023/05/30 06:33:59;;;;;;;4.23;3.50;;;18.30;93.50;;;;;;5060752;28;20168;-80
2023/05/30 06:36:24;;;;;;;6.03;3.63;;;18.40;93.50;;;;;;5041113;28;20180;-79
2023/05/30 06:38:51;;;;;;;3.90;3.53;;;18.50;93.60;;;;;;5035247;28;20225;-80
2023/05/30 06:41:17;;;;;;;4.03;3.70;;;18.60;93.50;;;;;;5052823;28;20642;-81
2023/05/30 06:43:42;;;;;;;4.17;3.77;;;18.70;93.20;;;;;;5047141;28;20184;-80
2023/05/30 06:46:08;;;;;;;4.13;3.27;;;18.80;93.40;;;;;;5055119;28;20244;-79
2023/05/30 06:48:34;;;;;;;4.97;3.70;;;18.90;93.30;;;;;;5061664;28;20250;-81
2023/05/30 06:51:00;;;;;;;4.83;3.60;;;18.90;93.00;;;;;;5063329;28;20233;-81
2023/05/30 06:53:25;;;;;;;6.80;4.37;;;18.90;92.90;;;;;;5054464;28;20198;-79
2023/05/30 06:55:51;;;;;;;4.87;3.50;;;18.90;92.80;;;;;;5059070;28;20186;-81
2023/05/30 06:58:18;;;;;;;4.40;3.47;;;18.90;92.90;;;;;;5057356;28;20181;-80
2023/05/30 07:00:44;;;;;;;5.03;3.47;;;19.00;93.00;;;;;;5039820;28;20180;-80
2023/05/30 07:03:09;;;;;;;4.37;3.40;;;19.20;92.60;;;;;;5058415;28;20172;-82
2023/05/30 07:05:36;;;;;;;3.67;3.23;;;19.20;92.60;;;;;;5071679;28;20171;-81
2023/05/30 07:08:01;;;;;;;3.87;3.43;;;19.20;92.10;;;;;;5073616;28;20235;-83
2023/05/30 07:10:27;;;;;;;4.77;3.67;;;19.30;92.30;;;;;;5038888;28;20716;-84
2023/05/30 07:12:53;;;;;;;5.07;3.27;;;19.40;92.50;;;;;;5039033;28;20531;-83
2023/05/30 07:15:19;;;;;;;3.63;3.33;;;19.50;92.00;;;;;;5058757;28;20179;-82
2023/05/30 07:17:44;;;;;;;8.93;3.77;;;19.60;91.80;;;;;;5068858;28;20206;-83
2023/05/30 07:20:10;;;;;;;4.83;3.50;;;19.70;91.80;;;;;;5045540;28;20266;-80
2023/05/30 07:22:38;;;;;;;3.87;3.20;;;19.70;91.70;;;;;;5058454;28;20578;-81
2023/05/30 07:25:05;;;;;;;5.30;3.80;;;19.80;91.10;;;;;;5038834;28;20176;-82
2023/05/30 07:27:31;;;;;;;5.17;3.40;;;19.90;91.30;;;;;;5065727;28;20207;-84
2023/05/30 07:30:00;;;;;;;4.93;3.43;;;20.00;91.20;;;;;;5042397;28;20176;-82
2023/05/30 07:32:26;;;;;;;3.57;3.27;;;20.00;91.20;;;;;;5039798;28;20203;-81
2023/05/30 07:34:52;;;;;;;4.17;2.77;;;20.00;90.40;;;;;;5037271;28;20205;-81
2023/05/30 07:37:18;;;;;;;3.53;3.23;;;20.10;90.40;;;;;;5034996;28;20310;-81
2023/05/30 07:39:43;;;;;;;4.00;3.70;;;20.20;90.30;;;;;;5036503;28;20251;-82
2023/05/30 07:42:09;;;;;;;3.03;2.77;;;20.40;89.50;;;;;;5035160;28;20596;-82
2023/05/30 07:44:35;;;;;;;3.73;3.07;;;20.40;88.60;;;;;;5036167;28;20485;-82
2023/05/30 07:47:02;;;;;;;3.30;3.00;;;20.50;89.00;;;;;;5036513;28;20204;-82
2023/05/30 07:49:28;;;;;;;4.73;2.93;;;20.70;89.30;;;;;;5035767;28;20223;-83
2023/05/30 07:51:56;;;;;;;3.43;3.10;;;20.80;88.20;;;;;;5037073;28;20658;-82
2023/05/30 07:54:22;;;;;;;3.03;2.83;;;;;;;;;;5044971;28;20177;-82
2023/05/30 07:56:48;;;;;;;3.50;3.20;;;21.20;87.80;;;;;;5035800;28;20252;-83
2023/05/30 07:59:14;;;;;;;3.33;3.03;;;21.20;88.20;;;;;;5045746;28;20632;-83
2023/05/30 08:01:41;;;;;;;3.57;3.27;;;21.30;87.50;;;;;;5038403;28;20165;-82
2023/05/30 08:04:07;;;;;;;2.90;2.70;;;21.50;87.00;;;;;;5037345;28;20168;-83
2023/05/30 08:06:34;;;;;;;2.77;2.57;;;21.60;86.50;;;;;;5036612;28;20245;-82
2023/05/30 08:09:01;;;;;;;3.17;2.77;;;21.40;85.20;;;;;;5036189;28;20723;-83
2023/05/30 08:11:26;;;;;;;3.90;3.10;;;21.40;85.20;;;;;;5035162;28;20231;-83
2023/05/30 08:13:53;;;;;;;3.00;2.60;;;;;;;;;;5035891;28;20180;-82
2023/05/30 08:16:20;;;;;;;2.90;2.70;;;21.70;84.00;;;;;;5035116;28;20176;-83
2023/05/30 08:18:46;;;;;;;4.00;3.13;;;21.80;83.60;;;;;;5033992;28;20644;-83
2023/05/30 08:21:12;;;;;;;4.57;3.20;;;21.90;83.00;;;;;;5035392;28;20169;-83
2023/05/30 08:23:38;;;;;;;2.80;2.60;;;22.00;84.40;;;;;;5039117;28;20232;-85
2023/05/30 08:26:06;;;;;;;3.23;2.73;;;22.20;83.90;;;;;;5050859;28;20181;-86
2023/05/30 08:28:32;;;;;;;2.87;2.67;;;22.30;83.80;;;;;;5043824;28;20176;-84
2023/05/30 08:30:58;;;;;;;3.40;2.70;;;22.40;82.10;;;;;;5053153;28;20176;-82
2023/05/30 08:33:25;;;;;;;4.07;3.10;;;22.30;82.70;;;;;;5038653;28;20321;-82
2023/05/30 08:35:51;;;;;;;2.87;2.67;;;22.20;81.70;;;;;;5036893;28;20667;-82
2023/05/30 08:38:17;;;;;;;3.23;2.90;;;22.00;82.50;;;;;;5034872;28;20228;-82
2023/05/30 08:40:44;;;;;;;3.43;3.13;;;22.00;83.20;;;;;;5038451;28;20196;-82
2023/05/30 08:43:10;;;;;;;2.97;2.50;;;22.10;82.50;;;;;;5041344;28;20179;-82
2023/05/30 08:45:37;;;;;;;3.30;3.10;;;22.10;83.10;;;;;;5034983;28;20173;-83
2023/05/30 08:48:04;;;;;;;3.27;2.97;;;22.10;81.80;;;;;;5034250;28;20231;-82
2023/05/30 08:50:33;;;;;;;4.03;2.80;;;22.20;81.60;;;;;;5033891;28;20173;-82
2023/05/30 08:53:12;;;;;;;2.90;2.70;;;22.30;82.20;;;;;;5035455;28;20185;-83
2023/05/30 08:55:58;;;;;;;3.13;2.83;;;22.30;81.30;;;;;;5036449;28;20180;-82
2023/05/30 08:58:29;;;;;;;2.97;2.77;;;22.40;80.60;;;;;;5035237;28;20224;-82
2023/05/30 09:00:55;;;;;;;3.03;2.83;;;22.20;80.80;;;;;;5033898;28;20686;-82
2023/05/30 09:03:22;;;;;;;4.33;2.67;;;22.20;80.60;;;;;;5033772;28;20181;-83
2023/05/30 09:05:49;;;;;;;3.00;2.70;;;22.20;81.10;;;;;;5035185;28;20263;-82
2023/05/30 09:08:16;;;;;;;4.13;3.10;;;22.30;81.20;;;;;;5037120;28;20212;-83
2023/05/30 09:10:48;;;;;;;2.90;2.70;;;22.40;81.20;;;;;;5046236;28;20236;-85
2023/05/30 09:13:16;;;;;;;2.87;2.67;;;22.60;80.70;;;;;;5050620;28;20195;-84
2023/05/30 09:15:43;;;;;;;2.83;2.63;;;22.80;80.50;;;;;;5037119;28;20542;-82
2023/05/30 09:18:09;;;;;;;3.00;2.80;;;22.90;81.70;;;;;;5034110;28;20629;-83
2023/05/30 09:20:38;;;;;;;3.08;2.85;;;23.10;81.70;;;;;;5034985;28;20175;-83
2023/05/30 09:23:05;;;;;;;2.90;2.70;;;23.10;82.00;;;;;;5035514;28;20169;-82
2023/05/30 09:25:45;;;;;;;3.92;2.50;;;23.20;79.60;;;;;;5040717;28;20177;-83
2023/05/30 09:28:12;;;;;;;3.75;2.92;;;23.30;81.30;;;;;;5055192;28;20212;-85
2023/05/30 09:30:58;;;;;;;3.17;2.97;;;23.40;81.30;;;;;;5038084;28;20187;-84
2023/05/30 09:33:40;;;;;;;4.28;2.85;;;23.60;81.60;;;;;;5038184;28;20199;-84
2023/05/30 09:36:07;;;;;;;2.40;2.30;;;23.60;73.20;;;;;;5034527;28;20157;-82
2023/05/30 09:38:33;;;;;;;3.65;2.60;;;23.70;72.20;;;;;;5032671;28;20228;-81
2023/05/30 09:41:03;;;;;;;2.70;2.55;;;23.60;71.10;;;;;;5033714;28;20276;-81
2023/05/30 09:43:34;;;;;;;3.20;2.50;;;23.60;70.50;;;;;;5034430;28;20566;-82
2023/05/30 09:46:05;;;;;;;3.05;2.30;;;23.30;70.80;;;;;;5033746;28;20176;-85
2023/05/30 09:48:32;;;;;;;2.65;2.45;;;23.40;69.00;;;;;;5025454;28;20197;-82
2023/05/30 09:51:01;;;;;;;3.40;2.55;;;23.30;68.40;;;;;;5017801;28;20726;-83
2023/05/30 09:53:29;;;;;;;3.67;2.60;;;23.20;69.10;;;;;;5015755;28;20172;-81
2023/05/30 09:55:59;;;;;;;2.63;2.43;;;22.90;67.70;;;;;;5014845;28;20169;-82
2023/05/30 09:58:25;;;;;;;2.80;2.60;;;22.60;67.90;;;;;;5013448;28;20213;-82
2023/05/30 10:00:53;;;;;;;2.73;2.57;;;22.50;68.40;;;;;;5015218;28;20174;-81
2023/05/30 10:03:20;;;;;;;3.13;2.83;;;22.50;67.60;;;;;;5014836;28;20303;-82
2023/05/30 10:05:47;;;;;;;3.00;2.80;;;22.60;68.80;;;;;;5026986;28;20229;-82
2023/05/30 10:08:14;;;;;;;2.50;2.40;;;22.70;67.80;;;;;;5022898;28;20748;-82
2023/05/30 10:10:40;;;;;;;2.80;2.60;;;22.90;68.00;;;;;;5014586;28;20582;-82
2023/05/30 10:13:06;;;;;;;2.57;2.40;;;23.00;68.20;;;;;;5013454;28;20189;-82
2023/05/30 10:15:33;;;;;;;2.90;2.70;;;23.10;66.70;;;;;;5015291;28;20204;-83
2023/05/30 10:18:06;;;;;;;3.20;2.90;;;23.00;68.20;;;;;;5033309;28;20180;-82
2023/05/30 10:20:37;;;;;;;3.03;2.83;;;22.90;69.50;;;;;;5015515;28;20215;-82
2023/05/30 10:23:07;;;;;;;3.63;2.70;;;22.90;69.70;;;;;;5014035;28;20169;-83
2023/05/30 10:25:36;;;;;;;4.10;2.47;;;23.10;73.40;;;;;;5013938;28;20173;-83
2023/05/30 10:28:03;;;;;;;2.78;2.67;;;23.20;73.50;;;;;;5017727;28;20224;-83
2023/05/30 10:30:31;;;;;;;2.70;2.50;;;22.30;73.30;;;;;;5019224;28;20179;-82
2023/05/30 10:33:07;;;;;;;2.90;2.70;;;23.60;74.60;;;;;;5015481;28;20181;-83
2023/05/30 10:35:34;;;;;;;3.58;2.80;;;23.70;75.60;;;;;;5012154;28;20701;-81
2023/05/30 10:38:01;;;;;;;3.72;3.15;;;23.90;75.40;;;;;;5031694;28;20234;-81
2023/05/30 10:40:35;;;;;;;3.03;2.67;;;23.90;73.10;;;;;;5036739;28;20179;-83
2023/05/30 10:43:19;;;;;;;2.92;2.72;;;24.00;73.90;;;;;;5031331;28;20204;-81
2023/05/30 10:46:09;;;;;;;4.07;2.97;;;24.30;72.60;;;;;;5032589;28;20168;-82
2023/05/30 10:49:12;;;;;;;2.67;2.50;;;24.30;72.40;;;;;;5032280;28;20631;-82
2023/05/30 10:52:05;;;;;;;2.90;2.70;;;24.20;73.40;;;;;;5031617;28;20168;-81
2023/05/30 10:54:34;;;;;;;2.60;2.40;;;24.40;74.50;;;;;;5032687;28;20219;-81
2023/05/30 10:57:01;;;;;;;4.10;2.55;;;24.50;75.40;;;;;;5032988;28;20230;-82
2023/05/30 10:59:27;;;;;;;5.28;4.03;;;24.40;71.80;;;;;;5032894;28;20181;-81
2023/05/30 11:02:01;;;;;;;3.80;3.50;;;24.40;70.90;;;;;;5032906;28;20203;-83
2023/05/30 11:04:38;;;;;;;3.95;3.30;;;24.40;69.40;;;;;;5033838;28;20164;-82
2023/05/30 11:07:06;;;;;;;3.70;3.40;;;24.20;70.20;;;;;;5042868;28;20640;-83
2023/05/30 11:09:32;;;;;;;3.30;3.10;;;24.10;70.40;;;;;;5045995;28;20197;-81
2023/05/30 11:12:01;;;;;;;3.35;3.03;;;24.00;72.20;;;;;;5033559;28;20184;-82
2023/05/30 11:14:29;;;;;;;3.15;2.53;;;24.10;73.20;;;;;;5034310;28;20347;-82
2023/05/30 11:17:04;;;;;;;2.78;2.58;;;24.10;70.10;;;;;;5034682;28;20175;-82
2023/05/30 11:19:42;;;;;;;2.60;2.40;;;24.20;69.30;;;;;;5035301;28;20180;-82
2023/05/30 11:22:18;;;;;;;2.90;2.53;;;24.30;68.30;;;;;;5037032;28;20169;-82
2023/05/30 11:24:45;;;;;;;2.80;2.60;;;24.20;69.80;;;;;;5041679;28;20232;-83
2023/05/30 11:27:15;;;;;;;2.58;2.47;;;24.30;70.80;;;;;;5043526;28;20226;-82
2023/05/30 11:29:44;;;;;;;2.78;2.58;;;24.40;71.00;;;;;;5020150;28;20271;-82
2023/05/30 11:32:11;;;;;;;3.17;2.72;;;24.40;71.90;;;;;;5036152;28;20192;-83
2023/05/30 11:34:37;;;;;;;3.08;2.88;;;24.50;69.30;;;;;;5041014;28;20169;-83
2023/05/30 11:37:04;;;;;;;3.05;2.75;;;24.60;68.40;;;;;;5059064;28;20234;-82
2023/05/30 11:39:36;;;;;;;3.05;2.78;;;24.40;68.70;;;;;;5043403;28;20183;-83
2023/05/30 11:42:07;;;;;;;2.70;2.50;;;24.40;68.40;;;;;;5061990;28;20186;-82
2023/05/30 11:44:33;;;;;;;2.85;2.65;;;24.50;67.50;;;;;;5062574;28;20175;-82
2023/05/30 11:46:59;;;;;;;3.10;2.83;;;24.40;67.50;;;;;;5067040;28;20204;-83
2023/05/30 11:49:25;;;;;;;2.92;2.63;;;24.40;67.40;;;;;;5064450;28;20198;-83
2023/05/30 11:51:52;;;;;;;3.42;2.85;;;24.50;66.60;;;;;;5060318;28;20176;-83
2023/05/30 11:54:19;;;;;;;3.45;3.15;;;24.60;66.80;;;;;;5070922;28;20160;-83
2023/05/30 11:56:47;;;;;;;3.00;2.80;;;24.40;66.70;;;;;;5058865;28;20172;-83
2023/05/30 11:59:18;;;;;;;5.38;3.15;;;24.50;66.40;;;;;;5039651;28;20183;-84
2023/05/30 12:01:57;;;;;;;3.85;3.40;;;24.50;65.60;;;;;;5056837;28;20166;-82
2023/05/30 12:04:29;;;;;;;2.90;2.63;;;24.50;66.00;;;;;;5038880;28;20167;-84
2023/05/30 12:07:01;;;;;;;3.00;2.80;;;24.40;65.60;;;;;;5042760;28;20269;-84
2023/05/30 12:09:28;;;;;;;5.35;2.90;;;24.60;66.00;;;;;;5056522;28;20601;-84
2023/05/30 12:11:57;;;;;;;3.20;2.92;;;24.70;66.50;;;;;;5057816;28;20176;-83
2023/05/30 12:14:36;;;;;;;3.40;3.10;;;24.70;65.20;;;;;;5038812;28;20184;-83
2023/05/30 12:17:02;;;;;;;2.92;2.78;;;24.60;64.90;;;;;;5038788;28;20258;-83
2023/05/30 12:19:29;;;;;;;3.25;3.05;;;24.60;65.40;;;;;;5056309;28;20215;-84
2023/05/30 12:21:55;;;;;;;3.35;2.47;;;24.50;65.20;;;;;;5039348;28;20180;-83
2023/05/30 12:24:25;;;;;;;2.92;2.72;;;24.60;65.00;;;;;;5056546;28;20172;-83
2023/05/30 12:26:57;;;;;;;3.65;2.88;;;24.70;65.40;;;;;;5072455;28;20214;-83
2023/05/30 12:29:25;;;;;;;3.25;2.95;;;24.60;64.90;;;;;;5045063;28;20175;-82
2023/05/30 12:31:52;;;;;;;3.78;2.95;;;24.70;64.50;;;;;;5038977;28;20207;-82
2023/05/30 12:34:19;;;;;;;3.13;2.92;;;24.70;64.90;;;;;;5057879;28;20265;-83
2023/05/30 12:36:48;;;;;;;3.63;3.20;;;24.80;65.80;;;;;;5055780;28;20227;-82
2023/05/30 12:39:14;;;;;;;3.03;2.83;;;24.80;65.50;;;;;;5039269;28;20192;-81
2023/05/30 12:41:41;;;;;;;3.17;2.97;;;24.90;64.90;;;;;;5057387;28;20171;-83
2023/05/30 12:44:07;;;;;;;6.05;2.90;;;24.90;65.20;;;;;;5055251;28;20172;-81
2023/05/30 12:46:41;;;;;;;3.40;2.55;;;24.90;64.70;;;;;;5038333;28;20218;-83
2023/05/30 12:49:07;;;;;;;2.88;2.60;;;24.90;64.70;;;;;;5038617;28;20187;-83
2023/05/30 12:51:33;;;;;;;2.90;2.70;;;24.90;65.70;;;;;;5037983;28;20176;-83